Fascination — C6FM9 — position and weather

sailwx.info

Track history (hours):
 
Tides and Currents Weather Stations Pressure Air Temp Water Temp Dewpoint Dewpoint Depression Visibility Wind Speed Wind Dir Waves Ship Positions

Fascination

Operator: Carnival Cruise Lines

Last reported at 2020-Apr-02 02:29 UTC. Time now 2020-Apr-02 04:35 UTC.
Position N 25°47' W 080°10'.

Type: Passenger vessel. MMSI: 309682000.

Date/timePositionNaut miles runAvg speedWind from/ knotsBaromVisibWave heightAir tempDewpointWater temp
2020-Apr-02 02:29N 25°47' W 080°10'0 0.0
2020-Apr-02 01:59N 25°47' W 080°10'0 0.0
2020-Apr-01 22:58N 25°47' W 080°10'0 0.0
2020-Apr-01 22:30N 25°47' W 080°10'0 0.0
2020-Apr-01 21:30N 25°47' W 080°10'0 0.0
2020-Apr-01 21:00N 25°47' W 080°10'0 0.0
2020-Apr-01 18:29N 25°47' W 080°10'0 0.0
2020-Apr-01 17:59N 25°47' W 080°10'0 0.0
2020-Apr-01 16:58N 25°47' W 080°10'0 0.0
2020-Apr-01 16:28N 25°47' W 080°10'0 0.0
2020-Apr-01 10:28N 25°47' W 080°10'15 6.0
2020-Apr-01 08:01N 25°49' W 079°54'5 9.5
2020-Apr-01 07:30N 25°50' W 079°49'138 5.7
2020-Mar-31 07:12N 27°54' W 078°42'6 6.9
2020-Mar-31 06:16N 27°53' W 078°35'12 5.5
2020-Mar-31 04:00N 27°41' W 078°32'0 0.4
2020-Mar-31 03:24N 27°41' W 078°32'10 0.5
2020-Mar-30 06:00N 27°51' W 078°29'3 0.8
2020-Mar-30 02:01N 27°49' W 078°26'3 6.1
2020-Mar-30 01:30N 27°46' W 078°28'25 2.8
2020-Mar-29 16:21N 27°38' W 078°54'4 1.2
2020-Mar-29 13:12N 27°41' W 078°53'1 0.9
2020-Mar-29 12:36N 27°42' W 078°53'1 0.8
2020-Mar-29 11:28N 27°43' W 078°53'1 0.4
2020-Mar-29 08:58N 27°44' W 078°52'11 1.7
2020-Mar-29 02:10N 27°52' W 079°00'1 0.4
2020-Mar-28 23:59N 27°51' W 078°60'0 0.6
2020-Mar-28 23:23N 27°51' W 078°59'8 1.0
2020-Mar-28 15:13N 27°45' W 078°53'15 5.0
2020-Mar-28 12:07N 27°35' W 079°05'112.0
2020-Mar-28 12:00N 27°34' W 079°06'4412.2
2020-Mar-28 08:25N 26°53' W 079°23'2512.4
2020-Mar-28 06:24N 26°28' W 079°25'511.9
2020-Mar-28 06:00N 26°23' W 079°26'3511.8
2020-Mar-28 03:00N 25°51' W 079°42'611.1
2020-Mar-28 02:30N 25°50' W 079°48'611.3
2020-Mar-28 02:00N 25°48' W 079°54'1010.3
2020-Mar-28 01:01N 25°46' W 080°05'5 1.8
2020-Mar-27 22:26N 25°47' W 080°10'0 0.0
2020-Mar-27 21:28N 25°47' W 080°10'0 0.0
2020-Mar-27 16:59N 25°47' W 080°10'0 0.0
2020-Mar-27 16:29N 25°47' W 080°10'0 0.0
2020-Mar-27 15:59N 25°47' W 080°10'0 0.0
2020-Mar-27 14:58N 25°47' W 080°10'0 0.0
2020-Mar-27 13:28N 25°47' W 080°10'0 0.0
2020-Mar-27 12:27N 25°47' W 080°10'0 0.0
2020-Mar-27 12:00N 25°47' W 080°10'0 0.0
2020-Mar-27 10:31N 25°47' W 080°10'1 2.2
2020-Mar-27 10:01N 25°46' W 080°09'20 9.9
2020-Mar-27 08:01N 25°52' W 079°48'20 9.9
2020-Mar-27 06:01N 26°05' W 079°31'71 3.7
2020-Mar-26 11:00N 27°15' W 079°19'1311.7
2020-Mar-26 09:52N 27°03' W 079°25'512.4
2020-Mar-26 09:29N 26°58' W 079°25'1912.6
2020-Mar-26 08:01N 26°40' W 079°25'1012.7
2020-Mar-26 07:13N 26°30' W 079°24'512.7
2020-Mar-26 06:51N 26°25' W 079°24'412.5
2020-Mar-26 06:30N 26°21' W 079°24'612.7
2020-Mar-26 06:00N 26°14' W 079°25'612.4
2020-Mar-26 05:30N 26°08' W 079°28'1313.5
2020-Mar-26 04:31N 25°57' W 079°36'1212.1
2020-Mar-26 03:30N 25°50' W 079°47'21 4.8
2020-Mar-25 23:00N 25°47' W 080°10'0 0.0
2020-Mar-25 20:29N 25°47' W 080°10'0 0.0
2020-Mar-25 15:30N 25°47' W 080°10'0 0.0
2020-Mar-25 13:29N 25°47' W 080°10'0 0.0
2020-Mar-25 12:59N 25°47' W 080°10'6 2.3
2020-Mar-25 10:30N 25°46' W 080°04'17 8.3
2020-Mar-25 08:30N 25°50' W 079°46'4 8.3
2020-Mar-25 08:00N 25°52' W 079°42'20 8.0
2020-Mar-25 05:30N 26°08' W 079°29'38 8.0
2020-Mar-25 00:43N 26°46' W 079°27'2 8.3
2020-Mar-25 00:29N 26°48' W 079°26'  
Track history (hours):
 
Tides and Currents Weather Stations Pressure Air Temp Water Temp Dewpoint Dewpoint Depression Visibility Wind Speed Wind Dir Waves Ship Positions

Fascination

Operator: Carnival Cruise Lines

Last reported at 2020-Apr-02 02:29 UTC. Time now 2020-Apr-02 04:35 UTC.
Position N 25°47' W 080°10'.

Type: Passenger vessel. MMSI: 309682000.

Date/timePositionNaut miles runAvg speedWind from/ knotsBaromVisibWave heightAir tempDewpointWater temp
2020-Apr-02 02:29N 25°47' W 080°10'0 0.0
2020-Apr-02 01:59N 25°47' W 080°10'0 0.0
2020-Apr-01 22:58N 25°47' W 080°10'0 0.0
2020-Apr-01 22:30N 25°47' W 080°10'0 0.0
2020-Apr-01 21:30N 25°47' W 080°10'0 0.0
2020-Apr-01 21:00N 25°47' W 080°10'0 0.0
2020-Apr-01 18:29N 25°47' W 080°10'0 0.0
2020-Apr-01 17:59N 25°47' W 080°10'0 0.0
2020-Apr-01 16:58N 25°47' W 080°10'0 0.0
2020-Apr-01 16:28N 25°47' W 080°10'0 0.0
2020-Apr-01 10:28N 25°47' W 080°10'15 6.0
2020-Apr-01 08:01N 25°49' W 079°54'5 9.5
2020-Apr-01 07:30N 25°50' W 079°49'138 5.7
2020-Mar-31 07:12N 27°54' W 078°42'6 6.9
2020-Mar-31 06:16N 27°53' W 078°35'12 5.5
2020-Mar-31 04:00N 27°41' W 078°32'0 0.4
2020-Mar-31 03:24N 27°41' W 078°32'10 0.5
2020-Mar-30 06:00N 27°51' W 078°29'3 0.8
2020-Mar-30 02:01N 27°49' W 078°26'3 6.1
2020-Mar-30 01:30N 27°46' W 078°28'25 2.8
2020-Mar-29 16:21N 27°38' W 078°54'4 1.2
2020-Mar-29 13:12N 27°41' W 078°53'1 0.9
2020-Mar-29 12:36N 27°42' W 078°53'1 0.8
2020-Mar-29 11:28N 27°43' W 078°53'1 0.4
2020-Mar-29 08:58N 27°44' W 078°52'11 1.7
2020-Mar-29 02:10N 27°52' W 079°00'1 0.4
2020-Mar-28 23:59N 27°51' W 078°60'0 0.6
2020-Mar-28 23:23N 27°51' W 078°59'8 1.0
2020-Mar-28 15:13N 27°45' W 078°53'15 5.0
2020-Mar-28 12:07N 27°35' W 079°05'112.0
2020-Mar-28 12:00N 27°34' W 079°06'4412.2
2020-Mar-28 08:25N 26°53' W 079°23'2512.4
2020-Mar-28 06:24N 26°28' W 079°25'511.9
2020-Mar-28 06:00N 26°23' W 079°26'3511.8
2020-Mar-28 03:00N 25°51' W 079°42'611.1
2020-Mar-28 02:30N 25°50' W 079°48'611.3
2020-Mar-28 02:00N 25°48' W 079°54'1010.3
2020-Mar-28 01:01N 25°46' W 080°05'5 1.8
2020-Mar-27 22:26N 25°47' W 080°10'0 0.0
2020-Mar-27 21:28N 25°47' W 080°10'0 0.0
2020-Mar-27 16:59N 25°47' W 080°10'0 0.0
2020-Mar-27 16:29N 25°47' W 080°10'0 0.0
2020-Mar-27 15:59N 25°47' W 080°10'0 0.0
2020-Mar-27 14:58N 25°47' W 080°10'0 0.0
2020-Mar-27 13:28N 25°47' W 080°10'0 0.0
2020-Mar-27 12:27N 25°47' W 080°10'0 0.0
2020-Mar-27 12:00N 25°47' W 080°10'0 0.0
2020-Mar-27 10:31N 25°47' W 080°10'1 2.2
2020-Mar-27 10:01N 25°46' W 080°09'20 9.9
2020-Mar-27 08:01N 25°52' W 079°48'20 9.9
2020-Mar-27 06:01N 26°05' W 079°31'71 3.7
2020-Mar-26 11:00N 27°15' W 079°19'1311.7
2020-Mar-26 09:52N 27°03' W 079°25'512.4
2020-Mar-26 09:29N 26°58' W 079°25'1912.6
2020-Mar-26 08:01N 26°40' W 079°25'1012.7
2020-Mar-26 07:13N 26°30' W 079°24'512.7
2020-Mar-26 06:51N 26°25' W 079°24'412.5
2020-Mar-26 06:30N 26°21' W 079°24'612.7
2020-Mar-26 06:00N 26°14' W 079°25'612.4
2020-Mar-26 05:30N 26°08' W 079°28'1313.5
2020-Mar-26 04:31N 25°57' W 079°36'1212.1
2020-Mar-26 03:30N 25°50' W 079°47'21 4.8
2020-Mar-25 23:00N 25°47' W 080°10'0 0.0
2020-Mar-25 20:29N 25°47' W 080°10'0 0.0
2020-Mar-25 15:30N 25°47' W 080°10'0 0.0
2020-Mar-25 13:29N 25°47' W 080°10'0 0.0
2020-Mar-25 12:59N 25°47' W 080°10'6 2.3
2020-Mar-25 10:30N 25°46' W 080°04'17 8.3
2020-Mar-25 08:30N 25°50' W 079°46'4 8.3
2020-Mar-25 08:00N 25°52' W 079°42'20 8.0
2020-Mar-25 05:30N 26°08' W 079°29'38 8.0
2020-Mar-25 00:43N 26°46' W 079°27'2 8.3
2020-Mar-25 00:29N 26°48' W 079°26'  

Dump ship's entire track history